sensor_id;sensor_type;location;lat;lon;timestamp;pressure;altitude;pressure_sealevel;temperature
15062;BMP180;7630;50.306;8.566;2023-09-30T00:02:07;98657.00;;;17.40
15062;BMP180;7630;50.306;8.566;2023-09-30T00:06:09;98657.00;;;17.60
15062;BMP180;7630;50.306;8.566;2023-09-30T00:10:10;98668.00;;;17.80
15062;BMP180;7630;50.306;8.566;2023-09-30T00:14:11;98677.00;;;17.70
15062;BMP180;7630;50.306;8.566;2023-09-30T00:18:12;98677.00;;;17.80
15062;BMP180;7630;50.306;8.566;2023-09-30T00:22:14;98691.00;;;18.00
15062;BMP180;7630;50.306;8.566;2023-09-30T00:26:15;98682.00;;;17.70
15062;BMP180;7630;50.306;8.566;2023-09-30T00:30:17;98687.00;;;16.80
15062;BMP180;7630;50.306;8.566;2023-09-30T00:34:18;98687.00;;;17.40
15062;BMP180;7630;50.306;8.566;2023-09-30T00:38:19;98706.00;;;16.90
15062;BMP180;7630;50.306;8.566;2023-09-30T00:42:21;98699.00;;;17.50
15062;BMP180;7630;50.306;8.566;2023-09-30T00:46:30;98703.00;;;17.80
15062;BMP180;7630;50.306;8.566;2023-09-30T00:50:32;98699.00;;;17.50
15062;BMP180;7630;50.306;8.566;2023-09-30T00:54:34;98711.00;;;17.40
15062;BMP180;7630;50.306;8.566;2023-09-30T00:58:38;98710.00;;;17.60
15062;BMP180;7630;50.306;8.566;2023-09-30T01:02:39;98715.00;;;17.40
15062;BMP180;7630;50.306;8.566;2023-09-30T01:06:42;98695.00;;;17.30
15062;BMP180;7630;50.306;8.566;2023-09-30T01:10:44;98716.00;;;18.00
15062;BMP180;7630;50.306;8.566;2023-09-30T01:14:45;98735.00;;;18.00
15062;BMP180;7630;50.306;8.566;2023-09-30T01:18:46;98742.00;;;17.70
15062;BMP180;7630;50.306;8.566;2023-09-30T01:22:47;98743.00;;;17.70
15062;BMP180;7630;50.306;8.566;2023-09-30T01:26:49;98737.00;;;17.90
15062;BMP180;7630;50.306;8.566;2023-09-30T01:30:50;98737.00;;;17.70
15062;BMP180;7630;50.306;8.566;2023-09-30T01:34:52;98732.00;;;17.30
15062;BMP180;7630;50.306;8.566;2023-09-30T01:38:53;98737.00;;;16.70
15062;BMP180;7630;50.306;8.566;2023-09-30T01:42:56;98742.00;;;17.10
15062;BMP180;7630;50.306;8.566;2023-09-30T01:46:57;98734.00;;;16.30
15062;BMP180;7630;50.306;8.566;2023-09-30T01:50:58;98721.00;;;16.20
15062;BMP180;7630;50.306;8.566;2023-09-30T01:54:59;98722.00;;;16.20
15062;BMP180;7630;50.306;8.566;2023-09-30T01:59:00;98722.00;;;16.50
15062;BMP180;7630;50.306;8.566;2023-09-30T02:03:02;98718.00;;;16.70
15062;BMP180;7630;50.306;8.566;2023-09-30T02:07:03;98722.00;;;16.50
15062;BMP180;7630;50.306;8.566;2023-09-30T02:11:04;98738.00;;;16.60
15062;BMP180;7630;50.306;8.566;2023-09-30T02:15:07;98734.00;;;16.40
15062;BMP180;7630;50.306;8.566;2023-09-30T02:19:08;98752.00;;;15.90
15062;BMP180;7630;50.306;8.566;2023-09-30T02:23:12;98750.00;;;16.20
15062;BMP180;7630;50.306;8.566;2023-09-30T02:27:13;98743.00;;;16.50
15062;BMP180;7630;50.306;8.566;2023-09-30T02:31:14;98749.00;;;16.40
15062;BMP180;7630;50.306;8.566;2023-09-30T02:35:15;98739.00;;;16.30
15062;BMP180;7630;50.306;8.566;2023-09-30T02:39:17;98729.00;;;16.40
15062;BMP180;7630;50.306;8.566;2023-09-30T02:43:18;98729.00;;;16.00
15062;BMP180;7630;50.306;8.566;2023-09-30T02:47:20;98739.00;;;16.10
15062;BMP180;7630;50.306;8.566;2023-09-30T02:51:21;98753.00;;;16.40
15062;BMP180;7630;50.306;8.566;2023-09-30T02:55:23;98626.00;;;16.00
15062;BMP180;7630;50.306;8.566;2023-09-30T02:59:24;98758.00;;;16.40
15062;BMP180;7630;50.306;8.566;2023-09-30T03:03:25;98728.00;;;16.20
15062;BMP180;7630;50.306;8.566;2023-09-30T03:07:29;98738.00;;;16.20
15062;BMP180;7630;50.306;8.566;2023-09-30T03:11:31;98742.00;;;16.40
15062;BMP180;7630;50.306;8.566;2023-09-30T03:15:33;98754.00;;;16.20
15062;BMP180;7630;50.306;8.566;2023-09-30T03:19:34;98745.00;;;16.30
15062;BMP180;7630;50.306;8.566;2023-09-30T03:23:35;98729.00;;;15.90
15062;BMP180;7630;50.306;8.566;2023-09-30T03:27:37;98728.00;;;14.50
15062;BMP180;7630;50.306;8.566;2023-09-30T03:31:38;98742.00;;;15.00
15062;BMP180;7630;50.306;8.566;2023-09-30T03:35:39;98770.00;;;16.00
15062;BMP180;7630;50.306;8.566;2023-09-30T03:39:40;98777.00;;;16.30
15062;BMP180;7630;50.306;8.566;2023-09-30T03:43:42;98777.00;;;16.40
15062;BMP180;7630;50.306;8.566;2023-09-30T03:47:43;98774.00;;;16.80
15062;BMP180;7630;50.306;8.566;2023-09-30T03:51:44;98778.00;;;16.80
15062;BMP180;7630;50.306;8.566;2023-09-30T03:55:45;98776.00;;;16.50
15062;BMP180;7630;50.306;8.566;2023-09-30T03:59:46;98774.00;;;16.50
15062;BMP180;7630;50.306;8.566;2023-09-30T04:03:47;98765.00;;;16.50
15062;BMP180;7630;50.306;8.566;2023-09-30T04:07:49;98783.00;;;16.90
15062;BMP180;7630;50.306;8.566;2023-09-30T04:11:50;98765.00;;;16.40
15062;BMP180;7630;50.306;8.566;2023-09-30T04:15:51;98788.00;;;16.50
15062;BMP180;7630;50.306;8.566;2023-09-30T04:19:53;98785.00;;;16.90
15062;BMP180;7630;50.306;8.566;2023-09-30T04:23:54;98802.00;;;16.70
15062;BMP180;7630;50.306;8.566;2023-09-30T04:27:56;98793.00;;;16.80
15062;BMP180;7630;50.306;8.566;2023-09-30T04:31:58;98799.00;;;16.50
15062;BMP180;7630;50.306;8.566;2023-09-30T04:35:59;98817.00;;;16.40
15062;BMP180;7630;50.306;8.566;2023-09-30T04:40:00;98807.00;;;15.90
15062;BMP180;7630;50.306;8.566;2023-09-30T04:44:01;98813.00;;;14.70
15062;BMP180;7630;50.306;8.566;2023-09-30T04:48:03;98810.00;;;14.70
15062;BMP180;7630;50.306;8.566;2023-09-30T04:52:05;98804.00;;;15.80
15062;BMP180;7630;50.306;8.566;2023-09-30T04:56:07;98801.00;;;15.20
15062;BMP180;7630;50.306;8.566;2023-09-30T05:00:11;98794.00;;;15.60
15062;BMP180;7630;50.306;8.566;2023-09-30T05:04:13;98786.00;;;16.00
15062;BMP180;7630;50.306;8.566;2023-09-30T05:08:14;98780.00;;;16.10
15062;BMP180;7630;50.306;8.566;2023-09-30T05:12:16;98785.00;;;15.80
15062;BMP180;7630;50.306;8.566;2023-09-30T05:16:18;98792.00;;;15.90
15062;BMP180;7630;50.306;8.566;2023-09-30T05:20:19;98795.00;;;15.60
15062;BMP180;7630;50.306;8.566;2023-09-30T05:24:20;98801.00;;;15.50
15062;BMP180;7630;50.306;8.566;2023-09-30T05:28:22;98798.00;;;15.00
15062;BMP180;7630;50.306;8.566;2023-09-30T05:32:23;98812.00;;;15.40
15062;BMP180;7630;50.306;8.566;2023-09-30T05:36:24;98823.00;;;15.60
15062;BMP180;7630;50.306;8.566;2023-09-30T05:40:26;98824.00;;;15.00
15062;BMP180;7630;50.306;8.566;2023-09-30T05:44:27;98825.00;;;15.30
15062;BMP180;7630;50.306;8.566;2023-09-30T05:48:28;98846.00;;;15.60
15062;BMP180;7630;50.306;8.566;2023-09-30T05:52:30;98837.00;;;15.60
15062;BMP180;7630;50.306;8.566;2023-09-30T05:56:31;98830.00;;;15.60
15062;BMP180;7630;50.306;8.566;2023-09-30T06:00:34;98830.00;;;15.60
15062;BMP180;7630;50.306;8.566;2023-09-30T06:04:36;98823.00;;;15.50
15062;BMP180;7630;50.306;8.566;2023-09-30T06:08:38;98841.00;;;15.50
15062;BMP180;7630;50.306;8.566;2023-09-30T06:12:39;98842.00;;;15.70
15062;BMP180;7630;50.306;8.566;2023-09-30T06:16:42;98839.00;;;15.90
15062;BMP180;7630;50.306;8.566;2023-09-30T06:20:43;98846.00;;;15.90
15062;BMP180;7630;50.306;8.566;2023-09-30T06:24:44;98863.00;;;16.10
15062;BMP180;7630;50.306;8.566;2023-09-30T06:28:45;98865.00;;;16.30
15062;BMP180;7630;50.306;8.566;2023-09-30T06:32:48;98856.00;;;16.60
15062;BMP180;7630;50.306;8.566;2023-09-30T06:36:50;98865.00;;;16.20
15062;BMP180;7630;50.306;8.566;2023-09-30T06:40:53;98865.00;;;16.20
15062;BMP180;7630;50.306;8.566;2023-09-30T06:44:54;98861.00;;;16.70
15062;BMP180;7630;50.306;8.566;2023-09-30T06:48:56;98873.00;;;16.80
15062;BMP180;7630;50.306;8.566;2023-09-30T06:52:57;98883.00;;;16.20
15062;BMP180;7630;50.306;8.566;2023-09-30T06:57:00;98871.00;;;17.10
15062;BMP180;7630;50.306;8.566;2023-09-30T07:01:01;98875.00;;;17.10
15062;BMP180;7630;50.306;8.566;2023-09-30T07:05:08;98877.00;;;17.20
15062;BMP180;7630;50.306;8.566;2023-09-30T07:09:09;98873.00;;;17.50
15062;BMP180;7630;50.306;8.566;2023-09-30T07:13:13;98878.00;;;17.90
15062;BMP180;7630;50.306;8.566;2023-09-30T07:17:14;98874.00;;;18.30
15062;BMP180;7630;50.306;8.566;2023-09-30T07:21:16;98874.00;;;18.60
15062;BMP180;7630;50.306;8.566;2023-09-30T07:25:17;98893.00;;;18.90
15062;BMP180;7630;50.306;8.566;2023-09-30T07:29:19;98897.00;;;18.10
15062;BMP180;7630;50.306;8.566;2023-09-30T07:33:20;98883.00;;;18.80
15062;BMP180;7630;50.306;8.566;2023-09-30T07:37:21;98896.00;;;19.20
15062;BMP180;7630;50.306;8.566;2023-09-30T07:41:23;98880.00;;;19.00
15062;BMP180;7630;50.306;8.566;2023-09-30T07:45:24;98883.00;;;18.90
15062;BMP180;7630;50.306;8.566;2023-09-30T07:49:25;98882.00;;;19.40
15062;BMP180;7630;50.306;8.566;2023-09-30T07:53:27;98879.00;;;19.60
15062;BMP180;7630;50.306;8.566;2023-09-30T07:57:28;98886.00;;;19.40
15062;BMP180;7630;50.306;8.566;2023-09-30T08:01:29;98883.00;;;20.00
15062;BMP180;7630;50.306;8.566;2023-09-30T08:05:31;98878.00;;;19.30
15062;BMP180;7630;50.306;8.566;2023-09-30T08:09:32;98897.00;;;19.90
15062;BMP180;7630;50.306;8.566;2023-09-30T08:13:34;98902.00;;;18.70
15062;BMP180;7630;50.306;8.566;2023-09-30T08:17:35;98904.00;;;19.10
15062;BMP180;7630;50.306;8.566;2023-09-30T08:21:37;98934.00;;;19.90
15062;BMP180;7630;50.306;8.566;2023-09-30T08:25:38;98896.00;;;19.40
15062;BMP180;7630;50.306;8.566;2023-09-30T08:29:39;98905.00;;;17.60
15062;BMP180;7630;50.306;8.566;2023-09-30T08:33:41;98909.00;;;18.80
15062;BMP180;7630;50.306;8.566;2023-09-30T08:37:44;98911.00;;;17.40
15062;BMP180;7630;50.306;8.566;2023-09-30T08:41:45;98924.00;;;17.80
15062;BMP180;7630;50.306;8.566;2023-09-30T08:45:48;98922.00;;;19.20
15062;BMP180;7630;50.306;8.566;2023-09-30T08:49:53;98922.00;;;19.40
15062;BMP180;7630;50.306;8.566;2023-09-30T08:53:58;98917.00;;;18.60
15062;BMP180;7630;50.306;8.566;2023-09-30T08:57:59;98920.00;;;19.70
15062;BMP180;7630;50.306;8.566;2023-09-30T09:02:03;98925.00;;;19.10
15062;BMP180;7630;50.306;8.566;2023-09-30T09:06:05;98930.00;;;18.40
15062;BMP180;7630;50.306;8.566;2023-09-30T09:10:08;98938.00;;;18.70
15062;BMP180;7630;50.306;8.566;2023-09-30T09:14:09;98942.00;;;19.30
15062;BMP180;7630;50.306;8.566;2023-09-30T09:18:11;98952.00;;;18.90
15062;BMP180;7630;50.306;8.566;2023-09-30T09:22:14;98950.00;;;19.60
15062;BMP180;7630;50.306;8.566;2023-09-30T09:26:31;98952.00;;;19.20
15062;BMP180;7630;50.306;8.566;2023-09-30T09:30:32;98947.00;;;19.40
15062;BMP180;7630;50.306;8.566;2023-09-30T09:34:34;98950.00;;;19.90
15062;BMP180;7630;50.306;8.566;2023-09-30T09:38:50;98954.00;;;18.90
15062;BMP180;7630;50.306;8.566;2023-09-30T09:42:55;98958.00;;;18.70
15062;BMP180;7630;50.306;8.566;2023-09-30T09:46:57;98953.00;;;18.30
15062;BMP180;7630;50.306;8.566;2023-09-30T09:50:59;98953.00;;;18.40
15062;BMP180;7630;50.306;8.566;2023-09-30T09:55:01;98946.00;;;18.20
15062;BMP180;7630;50.306;8.566;2023-09-30T09:59:04;98932.00;;;20.00
15062;BMP180;7630;50.306;8.566;2023-09-30T10:03:07;98923.00;;;19.80
15062;BMP180;7630;50.306;8.566;2023-09-30T10:07:10;98920.00;;;18.90
15062;BMP180;7630;50.306;8.566;2023-09-30T10:11:18;98913.00;;;20.30
15062;BMP180;7630;50.306;8.566;2023-09-30T10:19:32;98894.00;;;18.40
15062;BMP180;7630;50.306;8.566;2023-09-30T10:23:33;98904.00;;;18.90
15062;BMP180;7630;50.306;8.566;2023-09-30T10:27:36;98908.00;;;19.10
15062;BMP180;7630;50.306;8.566;2023-09-30T10:31:50;98919.00;;;20.60
15062;BMP180;7630;50.306;8.566;2023-09-30T10:35:52;98918.00;;;20.40
15062;BMP180;7630;50.306;8.566;2023-09-30T10:39:58;98915.00;;;20.60
15062;BMP180;7630;50.306;8.566;2023-09-30T10:44:31;98928.00;;;21.30
15062;BMP180;7630;50.306;8.566;2023-09-30T10:52:30;98913.00;;;21.90
15062;BMP180;7630;50.306;8.566;2023-09-30T10:56:33;98925.00;;;21.50
15062;BMP180;7630;50.306;8.566;2023-09-30T11:00:34;98902.00;;;21.70
15062;BMP180;7630;50.306;8.566;2023-09-30T11:04:46;98907.00;;;19.90
15062;BMP180;7630;50.306;8.566;2023-09-30T11:08:53;98917.00;;;20.00
15062;BMP180;7630;50.306;8.566;2023-09-30T11:12:56;98918.00;;;20.50
15062;BMP180;7630;50.306;8.566;2023-09-30T11:17:01;98933.00;;;19.90
15062;BMP180;7630;50.306;8.566;2023-09-30T11:21:08;98922.00;;;19.70
15062;BMP180;7630;50.306;8.566;2023-09-30T11:25:19;98918.00;;;20.10
15062;BMP180;7630;50.306;8.566;2023-09-30T11:29:20;98912.00;;;21.20
15062;BMP180;7630;50.306;8.566;2023-09-30T11:33:22;98893.00;;;20.70
15062;BMP180;7630;50.306;8.566;2023-09-30T11:37:23;98873.00;;;21.80
15062;BMP180;7630;50.306;8.566;2023-09-30T11:41:32;98914.00;;;19.60
15062;BMP180;7630;50.306;8.566;2023-09-30T11:45:29;98915.00;;;19.50
15062;BMP180;7630;50.306;8.566;2023-09-30T11:49:38;98912.00;;;19.50
15062;BMP180;7630;50.306;8.566;2023-09-30T11:53:40;98898.00;;;20.40
15062;BMP180;7630;50.306;8.566;2023-09-30T11:57:41;98912.00;;;20.70
15062;BMP180;7630;50.306;8.566;2023-09-30T12:01:43;98901.00;;;22.00
15062;BMP180;7630;50.306;8.566;2023-09-30T12:05:46;98906.00;;;20.90
15062;BMP180;7630;50.306;8.566;2023-09-30T12:09:47;98898.00;;;22.80
15062;BMP180;7630;50.306;8.566;2023-09-30T12:13:49;98896.00;;;22.10
15062;BMP180;7630;50.306;8.566;2023-09-30T12:17:50;98887.00;;;22.30
15062;BMP180;7630;50.306;8.566;2023-09-30T12:21:52;98884.00;;;21.60
15062;BMP180;7630;50.306;8.566;2023-09-30T12:25:53;98886.00;;;22.80
15062;BMP180;7630;50.306;8.566;2023-09-30T12:29:57;98878.00;;;22.90
15062;BMP180;7630;50.306;8.566;2023-09-30T12:33:58;98879.00;;;23.40
15062;BMP180;7630;50.306;8.566;2023-09-30T12:38:00;98888.00;;;24.30
15062;BMP180;7630;50.306;8.566;2023-09-30T12:42:02;98890.00;;;21.70
15062;BMP180;7630;50.306;8.566;2023-09-30T12:46:05;98882.00;;;22.70
15062;BMP180;7630;50.306;8.566;2023-09-30T12:50:07;98887.00;;;23.40
15062;BMP180;7630;50.306;8.566;2023-09-30T12:54:11;98877.00;;;22.50
15062;BMP180;7630;50.306;8.566;2023-09-30T12:58:14;98889.00;;;23.30
15062;BMP180;7630;50.306;8.566;2023-09-30T13:02:16;98890.00;;;24.70
15062;BMP180;7630;50.306;8.566;2023-09-30T13:06:19;98893.00;;;25.20
15062;BMP180;7630;50.306;8.566;2023-09-30T13:10:20;98899.00;;;25.80
15062;BMP180;7630;50.306;8.566;2023-09-30T13:14:23;98896.00;;;24.90
15062;BMP180;7630;50.306;8.566;2023-09-30T13:18:25;98876.00;;;24.10
15062;BMP180;7630;50.306;8.566;2023-09-30T13:22:26;98873.00;;;21.00
15062;BMP180;7630;50.306;8.566;2023-09-30T13:26:27;98858.00;;;23.30
15062;BMP180;7630;50.306;8.566;2023-09-30T13:30:29;98841.00;;;25.10
15062;BMP180;7630;50.306;8.566;2023-09-30T13:34:30;98844.00;;;26.30
15062;BMP180;7630;50.306;8.566;2023-09-30T13:38:32;98844.00;;;25.40
15062;BMP180;7630;50.306;8.566;2023-09-30T13:42:34;98855.00;;;24.90
15062;BMP180;7630;50.306;8.566;2023-09-30T13:46:36;98865.00;;;25.10
15062;BMP180;7630;50.306;8.566;2023-09-30T13:50:37;98861.00;;;24.00
15062;BMP180;7630;50.306;8.566;2023-09-30T13:54:38;98846.00;;;22.50
15062;BMP180;7630;50.306;8.566;2023-09-30T13:58:39;98839.00;;;24.20
15062;BMP180;7630;50.306;8.566;2023-09-30T14:02:40;98829.00;;;24.90
15062;BMP180;7630;50.306;8.566;2023-09-30T14:06:42;98832.00;;;24.40
15062;BMP180;7630;50.306;8.566;2023-09-30T14:10:44;98831.00;;;24.80
15062;BMP180;7630;50.306;8.566;2023-09-30T14:14:45;98821.00;;;23.50
15062;BMP180;7630;50.306;8.566;2023-09-30T14:18:46;98819.00;;;24.70
15062;BMP180;7630;50.306;8.566;2023-09-30T14:22:50;98826.00;;;24.80
15062;BMP180;7630;50.306;8.566;2023-09-30T14:26:52;98832.00;;;24.30
15062;BMP180;7630;50.306;8.566;2023-09-30T14:30:53;98826.00;;;22.30
15062;BMP180;7630;50.306;8.566;2023-09-30T14:34:55;98834.00;;;22.40
15062;BMP180;7630;50.306;8.566;2023-09-30T14:38:56;98817.00;;;22.80
15062;BMP180;7630;50.306;8.566;2023-09-30T14:42:59;98829.00;;;20.60
15062;BMP180;7630;50.306;8.566;2023-09-30T14:47:03;98817.00;;;20.20
15062;BMP180;7630;50.306;8.566;2023-09-30T14:51:05;98812.00;;;21.50
15062;BMP180;7630;50.306;8.566;2023-09-30T14:55:07;98818.00;;;21.30
15062;BMP180;7630;50.306;8.566;2023-09-30T14:59:09;98823.00;;;21.90
15062;BMP180;7630;50.306;8.566;2023-09-30T15:03:10;98820.00;;;20.80
15062;BMP180;7630;50.306;8.566;2023-09-30T15:07:12;98815.00;;;20.80
15062;BMP180;7630;50.306;8.566;2023-09-30T15:11:13;98815.00;;;19.80
15062;BMP180;7630;50.306;8.566;2023-09-30T15:15:18;98811.00;;;18.90
15062;BMP180;7630;50.306;8.566;2023-09-30T15:19:19;98816.00;;;20.00
15062;BMP180;7630;50.306;8.566;2023-09-30T15:23:20;98813.00;;;21.10
15062;BMP180;7630;50.306;8.566;2023-09-30T15:27:22;98813.00;;;21.20
15062;BMP180;7630;50.306;8.566;2023-09-30T15:31:30;98811.00;;;21.00
15062;BMP180;7630;50.306;8.566;2023-09-30T15:35:31;98812.00;;;20.80
15062;BMP180;7630;50.306;8.566;2023-09-30T15:39:38;98817.00;;;20.20
15062;BMP180;7630;50.306;8.566;2023-09-30T15:43:40;98811.00;;;20.70
15062;BMP180;7630;50.306;8.566;2023-09-30T15:47:41;98821.00;;;19.70
15062;BMP180;7630;50.306;8.566;2023-09-30T15:51:43;98824.00;;;20.00
15062;BMP180;7630;50.306;8.566;2023-09-30T15:55:44;98815.00;;;20.40
15062;BMP180;7630;50.306;8.566;2023-09-30T15:59:45;98816.00;;;20.60
15062;BMP180;7630;50.306;8.566;2023-09-30T16:03:48;98823.00;;;20.40
15062;BMP180;7630;50.306;8.566;2023-09-30T16:07:49;98822.00;;;20.30
15062;BMP180;7630;50.306;8.566;2023-09-30T16:11:51;98833.00;;;20.30
15062;BMP180;7630;50.306;8.566;2023-09-30T16:15:52;98811.00;;;20.10
15062;BMP180;7630;50.306;8.566;2023-09-30T16:19:53;98816.00;;;20.20
15062;BMP180;7630;50.306;8.566;2023-09-30T16:23:54;98817.00;;;20.50
15062;BMP180;7630;50.306;8.566;2023-09-30T16:27:56;98803.00;;;20.80
15062;BMP180;7630;50.306;8.566;2023-09-30T16:31:59;98802.00;;;21.00
15062;BMP180;7630;50.306;8.566;2023-09-30T16:36:05;98806.00;;;20.80
15062;BMP180;7630;50.306;8.566;2023-09-30T16:40:07;98814.00;;;20.60
15062;BMP180;7630;50.306;8.566;2023-09-30T16:44:09;98824.00;;;20.60
15062;BMP180;7630;50.306;8.566;2023-09-30T16:48:10;98814.00;;;20.60
15062;BMP180;7630;50.306;8.566;2023-09-30T16:52:11;98818.00;;;20.50
15062;BMP180;7630;50.306;8.566;2023-09-30T16:56:12;98820.00;;;20.00
15062;BMP180;7630;50.306;8.566;2023-09-30T17:00:14;98826.00;;;19.90
15062;BMP180;7630;50.306;8.566;2023-09-30T17:04:16;98824.00;;;19.70
15062;BMP180;7630;50.306;8.566;2023-09-30T17:08:17;98826.00;;;19.60
15062;BMP180;7630;50.306;8.566;2023-09-30T17:12:19;98822.00;;;19.60
15062;BMP180;7630;50.306;8.566;2023-09-30T17:16:20;98822.00;;;19.20
15062;BMP180;7630;50.306;8.566;2023-09-30T17:20:22;98829.00;;;19.40
15062;BMP180;7630;50.306;8.566;2023-09-30T17:24:24;98823.00;;;18.90
15062;BMP180;7630;50.306;8.566;2023-09-30T17:28:25;98826.00;;;18.90
15062;BMP180;7630;50.306;8.566;2023-09-30T17:32:27;98831.00;;;18.70
15062;BMP180;7630;50.306;8.566;2023-09-30T17:36:28;98845.00;;;18.50
15062;BMP180;7630;50.306;8.566;2023-09-30T17:40:30;98842.00;;;18.40
15062;BMP180;7630;50.306;8.566;2023-09-30T17:44:31;98841.00;;;18.00
15062;BMP180;7630;50.306;8.566;2023-09-30T17:48:32;98846.00;;;18.10
15062;BMP180;7630;50.306;8.566;2023-09-30T17:52:34;98845.00;;;17.60
15062;BMP180;7630;50.306;8.566;2023-09-30T17:56:36;98842.00;;;17.60
15062;BMP180;7630;50.306;8.566;2023-09-30T18:00:37;98839.00;;;17.90
15062;BMP180;7630;50.306;8.566;2023-09-30T18:04:38;98822.00;;;17.30
15062;BMP180;7630;50.306;8.566;2023-09-30T18:08:43;98848.00;;;17.30
15062;BMP180;7630;50.306;8.566;2023-09-30T18:12:45;98858.00;;;17.30
15062;BMP180;7630;50.306;8.566;2023-09-30T18:16:46;98838.00;;;17.00
15062;BMP180;7630;50.306;8.566;2023-09-30T18:20:48;98838.00;;;17.30
15062;BMP180;7630;50.306;8.566;2023-09-30T18:24:49;98836.00;;;17.20
15062;BMP180;7630;50.306;8.566;2023-09-30T18:28:50;98838.00;;;17.00
15062;BMP180;7630;50.306;8.566;2023-09-30T18:32:53;98828.00;;;16.90
15062;BMP180;7630;50.306;8.566;2023-09-30T18:36:54;98814.00;;;16.50
15062;BMP180;7630;50.306;8.566;2023-09-30T18:40:55;98830.00;;;16.70
15062;BMP180;7630;50.306;8.566;2023-09-30T18:44:57;98825.00;;;16.80
15062;BMP180;7630;50.306;8.566;2023-09-30T18:48:58;98828.00;;;16.60
15062;BMP180;7630;50.306;8.566;2023-09-30T18:52:59;98830.00;;;16.50
15062;BMP180;7630;50.306;8.566;2023-09-30T18:57:01;98831.00;;;16.50
15062;BMP180;7630;50.306;8.566;2023-09-30T19:01:02;98832.00;;;16.10
15062;BMP180;7630;50.306;8.566;2023-09-30T19:05:04;98836.00;;;16.20
15062;BMP180;7630;50.306;8.566;2023-09-30T19:09:06;98837.00;;;15.90
15062;BMP180;7630;50.306;8.566;2023-09-30T19:13:09;98832.00;;;15.90
15062;BMP180;7630;50.306;8.566;2023-09-30T19:17:11;98825.00;;;15.90
15062;BMP180;7630;50.306;8.566;2023-09-30T19:21:12;98822.00;;;16.10
15062;BMP180;7630;50.306;8.566;2023-09-30T19:25:15;98825.00;;;15.90
15062;BMP180;7630;50.306;8.566;2023-09-30T19:29:17;98826.00;;;15.70
15062;BMP180;7630;50.306;8.566;2023-09-30T19:33:18;98861.00;;;15.60
15062;BMP180;7630;50.306;8.566;2023-09-30T19:37:19;98822.00;;;15.60
15062;BMP180;7630;50.306;8.566;2023-09-30T19:41:21;98817.00;;;15.60
15062;BMP180;7630;50.306;8.566;2023-09-30T19:45:23;98674.00;;;15.40
15062;BMP180;7630;50.306;8.566;2023-09-30T19:49:24;98823.00;;;15.40
15062;BMP180;7630;50.306;8.566;2023-09-30T19:53:25;98818.00;;;15.30
15062;BMP180;7630;50.306;8.566;2023-09-30T19:57:26;98830.00;;;15.20
15062;BMP180;7630;50.306;8.566;2023-09-30T20:01:30;98819.00;;;15.20
15062;BMP180;7630;50.306;8.566;2023-09-30T20:05:31;98810.00;;;15.10
15062;BMP180;7630;50.306;8.566;2023-09-30T20:09:32;98814.00;;;15.00
15062;BMP180;7630;50.306;8.566;2023-09-30T20:13:34;98836.00;;;15.00
15062;BMP180;7630;50.306;8.566;2023-09-30T20:17:37;98824.00;;;14.90
15062;BMP180;7630;50.306;8.566;2023-09-30T20:21:38;98825.00;;;15.00
15062;BMP180;7630;50.306;8.566;2023-09-30T20:25:39;98821.00;;;14.90
15062;BMP180;7630;50.306;8.566;2023-09-30T20:29:41;98824.00;;;14.80
15062;BMP180;7630;50.306;8.566;2023-09-30T20:33:42;98826.00;;;14.90
15062;BMP180;7630;50.306;8.566;2023-09-30T20:37:44;98832.00;;;14.50
15062;BMP180;7630;50.306;8.566;2023-09-30T20:41:46;98830.00;;;14.70
15062;BMP180;7630;50.306;8.566;2023-09-30T20:45:48;98832.00;;;14.70
15062;BMP180;7630;50.306;8.566;2023-09-30T20:49:50;98841.00;;;14.60
15062;BMP180;7630;50.306;8.566;2023-09-30T20:53:51;98836.00;;;14.70
15062;BMP180;7630;50.306;8.566;2023-09-30T20:57:55;98835.00;;;14.40
15062;BMP180;7630;50.306;8.566;2023-09-30T21:01:56;98842.00;;;14.40
15062;BMP180;7630;50.306;8.566;2023-09-30T21:06:07;98834.00;;;14.40
15062;BMP180;7630;50.306;8.566;2023-09-30T21:10:07;98820.00;;;13.60
15062;BMP180;7630;50.306;8.566;2023-09-30T21:14:08;98825.00;;;14.20
15062;BMP180;7630;50.306;8.566;2023-09-30T21:18:10;98830.00;;;14.50
15062;BMP180;7630;50.306;8.566;2023-09-30T21:22:11;98824.00;;;14.30
15062;BMP180;7630;50.306;8.566;2023-09-30T21:26:13;98826.00;;;14.40
15062;BMP180;7630;50.306;8.566;2023-09-30T21:30:14;98833.00;;;14.20
15062;BMP180;7630;50.306;8.566;2023-09-30T21:34:16;98830.00;;;14.40
15062;BMP180;7630;50.306;8.566;2023-09-30T21:38:17;98833.00;;;14.10
15062;BMP180;7630;50.306;8.566;2023-09-30T21:42:18;98838.00;;;14.10
15062;BMP180;7630;50.306;8.566;2023-09-30T21:46:19;98834.00;;;14.00
15062;BMP180;7630;50.306;8.566;2023-09-30T21:50:21;98820.00;;;14.10
15062;BMP180;7630;50.306;8.566;2023-09-30T21:54:22;98830.00;;;13.90
15062;BMP180;7630;50.306;8.566;2023-09-30T21:58:23;98837.00;;;13.90
15062;BMP180;7630;50.306;8.566;2023-09-30T22:02:26;98815.00;;;13.70
15062;BMP180;7630;50.306;8.566;2023-09-30T22:06:28;98823.00;;;13.70
15062;BMP180;7630;50.306;8.566;2023-09-30T22:10:29;98826.00;;;13.60
15062;BMP180;7630;50.306;8.566;2023-09-30T22:14:30;98830.00;;;13.70
15062;BMP180;7630;50.306;8.566;2023-09-30T22:18:31;98831.00;;;13.70
15062;BMP180;7630;50.306;8.566;2023-09-30T22:22:33;98830.00;;;13.60
15062;BMP180;7630;50.306;8.566;2023-09-30T22:26:34;98812.00;;;13.60
15062;BMP180;7630;50.306;8.566;2023-09-30T22:30:36;98824.00;;;13.50
15062;BMP180;7630;50.306;8.566;2023-09-30T22:34:37;98815.00;;;13.40
15062;BMP180;7630;50.306;8.566;2023-09-30T22:38:38;98809.00;;;13.60
15062;BMP180;7630;50.306;8.566;2023-09-30T22:42:40;98798.00;;;13.50
15062;BMP180;7630;50.306;8.566;2023-09-30T22:46:41;98803.00;;;13.70
15062;BMP180;7630;50.306;8.566;2023-09-30T22:50:43;98809.00;;;13.60
15062;BMP180;7630;50.306;8.566;2023-09-30T22:54:44;98811.00;;;13.60
15062;BMP180;7630;50.306;8.566;2023-09-30T22:58:46;98804.00;;;13.40
15062;BMP180;7630;50.306;8.566;2023-09-30T23:02:47;98806.00;;;13.10
15062;BMP180;7630;50.306;8.566;2023-09-30T23:06:49;98809.00;;;13.30
15062;BMP180;7630;50.306;8.566;2023-09-30T23:10:51;98780.00;;;13.40
15062;BMP180;7630;50.306;8.566;2023-09-30T23:14:52;98808.00;;;13.50
15062;BMP180;7630;50.306;8.566;2023-09-30T23:18:53;98805.00;;;13.40
15062;BMP180;7630;50.306;8.566;2023-09-30T23:22:57;98807.00;;;13.40
15062;BMP180;7630;50.306;8.566;2023-09-30T23:27:00;98801.00;;;13.30
15062;BMP180;7630;50.306;8.566;2023-09-30T23:31:03;98805.00;;;13.50
15062;BMP180;7630;50.306;8.566;2023-09-30T23:35:05;98815.00;;;13.30
15062;BMP180;7630;50.306;8.566;2023-09-30T23:39:08;98820.00;;;13.20
15062;BMP180;7630;50.306;8.566;2023-09-30T23:43:11;98819.00;;;13.20